createdAt,value
2018-03-16T00:00:51.297Z,5.70
2018-03-16T00:03:18.910Z,5.80
2018-03-16T00:05:46.454Z,5.80
2018-03-16T00:08:14.026Z,5.90
2018-03-16T00:10:41.577Z,6.00
2018-03-16T00:13:09.137Z,6.00
2018-03-16T00:15:36.698Z,6.00
2018-03-16T00:18:04.251Z,6.10
2018-03-16T00:20:31.819Z,6.00
2018-03-16T00:22:59.384Z,6.10
2018-03-16T00:25:26.961Z,6.10
2018-03-16T00:27:54.523Z,6.20
2018-03-16T00:30:22.074Z,6.20
2018-03-16T00:32:49.651Z,6.20
2018-03-16T00:35:17.199Z,6.20
2018-03-16T00:37:44.735Z,6.20
2018-03-16T00:40:12.407Z,6.30
2018-03-16T00:42:39.945Z,6.30
2018-03-16T00:45:08.301Z,6.30
2018-03-16T00:47:35.869Z,6.30
2018-03-16T00:50:04.198Z,6.30
2018-03-16T00:52:31.747Z,6.30
2018-03-16T00:54:59.308Z,6.30
2018-03-16T00:57:26.860Z,6.30
2018-03-16T00:59:54.462Z,6.30
2018-03-16T01:02:22.014Z,6.30
2018-03-16T01:04:50.351Z,6.30
2018-03-16T01:07:17.884Z,6.30
2018-03-16T01:09:45.455Z,6.30
2018-03-16T01:12:13.904Z,6.30
2018-03-16T01:14:41.493Z,6.40
2018-03-16T01:17:09.792Z,6.40
2018-03-16T01:19:37.361Z,6.40
2018-03-16T01:22:04.901Z,6.40
2018-03-16T01:24:32.579Z,6.40
2018-03-16T01:27:00.317Z,6.40
2018-03-16T01:29:27.860Z,6.40
2018-03-16T01:31:55.437Z,6.50
2018-03-16T01:34:22.980Z,6.40
2018-03-16T01:36:51.318Z,6.40
2018-03-16T01:39:18.869Z,6.40
2018-03-16T01:41:46.425Z,6.50
2018-03-16T01:44:13.972Z,6.40
2018-03-16T01:46:41.532Z,6.40
2018-03-16T01:49:09.108Z,6.40
2018-03-16T01:51:36.684Z,6.40
2018-03-16T01:54:04.233Z,6.40
2018-03-16T01:56:31.809Z,6.40
2018-03-16T01:58:59.500Z,6.40
2018-03-16T02:01:27.845Z,6.40
2018-03-16T02:03:55.410Z,6.40
2018-03-16T02:06:23.000Z,6.40
2018-03-16T02:08:50.553Z,6.40
2018-03-16T02:11:18.924Z,6.40
2018-03-16T02:13:46.476Z,6.40
2018-03-16T02:16:14.016Z,6.40
2018-03-16T02:18:41.589Z,6.50
2018-03-16T02:21:09.172Z,6.40
2018-03-16T02:23:37.498Z,6.40
2018-03-16T02:26:05.088Z,6.40
2018-03-16T02:28:32.636Z,6.40
2018-03-16T02:31:00.204Z,6.40
2018-03-16T02:33:27.756Z,6.30
2018-03-16T02:35:55.345Z,6.30
2018-03-16T02:38:22.893Z,6.30
2018-03-16T02:40:50.460Z,6.30
2018-03-16T02:43:18.159Z,6.20
2018-03-16T02:45:45.768Z,6.20
2018-03-16T02:48:13.436Z,6.30
2018-03-16T02:50:41.026Z,6.30
2018-03-16T02:53:08.577Z,6.20
2018-03-16T02:55:36.141Z,6.30
2018-03-16T02:58:03.698Z,6.20
2018-03-16T03:00:32.177Z,6.20
2018-03-16T03:02:59.740Z,6.20
2018-03-16T03:05:27.309Z,6.20
2018-03-16T03:07:54.857Z,6.20
2018-03-16T03:10:22.670Z,6.20
2018-03-16T03:12:50.218Z,6.20
2018-03-16T03:15:17.795Z,6.20
2018-03-16T03:17:45.398Z,6.20
2018-03-16T03:20:12.962Z,6.20
2018-03-16T03:22:40.513Z,6.20
2018-03-16T03:25:08.083Z,6.30
2018-03-16T03:27:36.407Z,6.30
2018-03-16T03:30:03.967Z,6.30
2018-03-16T03:32:31.529Z,6.30
2018-03-16T03:34:59.093Z,6.30
2018-03-16T03:37:26.644Z,6.30
2018-03-16T03:39:54.204Z,6.30
2018-03-16T03:42:21.757Z,6.30
2018-03-16T03:44:49.336Z,6.30
2018-03-16T03:47:16.892Z,6.30
2018-03-16T03:49:45.970Z,6.20
2018-03-16T03:52:13.512Z,6.20
2018-03-16T03:54:41.102Z,6.20
2018-03-16T03:57:08.642Z,6.20
2018-03-16T03:59:36.273Z,6.10
2018-03-16T04:02:03.920Z,6.20
2018-03-16T04:04:32.248Z,6.10
2018-03-16T04:06:59.799Z,6.10
2018-03-16T04:09:27.364Z,6.10
2018-03-16T04:11:54.918Z,6.10
2018-03-16T04:14:22.477Z,6.10
2018-03-16T04:16:50.230Z,6.10
2018-03-16T04:19:17.820Z,6.10
2018-03-16T04:21:45.364Z,6.10
2018-03-16T04:24:12.902Z,6.10
2018-03-16T04:26:40.563Z,6.10
2018-03-16T04:29:08.116Z,6.10
2018-03-16T04:31:35.914Z,6.10
2018-03-16T04:34:03.561Z,6.10
2018-03-16T04:36:31.137Z,6.10
2018-03-16T04:38:58.879Z,6.10
2018-03-16T04:41:26.461Z,6.00
2018-03-16T04:43:54.042Z,6.00
2018-03-16T04:46:21.617Z,6.00
2018-03-16T04:48:49.178Z,6.00
2018-03-16T04:51:17.574Z,5.90
2018-03-16T04:53:45.125Z,5.90
2018-03-16T04:56:13.468Z,5.90
2018-03-16T04:58:41.030Z,5.90
2018-03-16T05:01:08.611Z,5.90
2018-03-16T05:03:36.932Z,5.90
2018-03-16T05:06:04.489Z,5.90
2018-03-16T05:08:32.033Z,5.90
2018-03-16T05:10:59.602Z,5.90
2018-03-16T05:13:27.201Z,5.90
2018-03-16T05:15:57.083Z,5.90
2018-03-16T05:18:24.634Z,5.90
2018-03-16T05:20:52.241Z,5.90
2018-03-16T05:23:19.818Z,5.90
2018-03-16T05:25:47.366Z,5.80
2018-03-16T05:28:14.953Z,5.80
2018-03-16T05:30:43.259Z,5.80
2018-03-16T05:33:10.838Z,5.80
2018-03-16T05:35:38.396Z,5.80
2018-03-16T05:38:05.961Z,5.80
2018-03-16T05:40:33.534Z,5.80
2018-03-16T05:43:01.093Z,5.80
2018-03-16T05:45:29.454Z,5.80
2018-03-16T05:47:57.023Z,5.80
2018-03-16T05:50:24.592Z,5.80
2018-03-16T05:52:52.157Z,5.80
2018-03-16T05:55:19.774Z,5.80
2018-03-16T05:57:47.330Z,5.80
2018-03-16T06:00:14.898Z,5.80
2018-03-16T06:02:42.540Z,5.70
2018-03-16T06:05:10.275Z,5.80
2018-03-16T06:07:38.089Z,5.80
2018-03-16T06:10:05.666Z,5.80
2018-03-16T06:12:33.209Z,5.70
2018-03-16T06:15:00.785Z,5.70
2018-03-16T06:17:28.330Z,5.70
2018-03-16T06:19:55.875Z,5.70
2018-03-16T06:22:23.434Z,5.70
2018-03-16T06:24:51.009Z,5.60
2018-03-16T06:27:18.569Z,5.50
2018-03-16T06:29:46.130Z,5.50
2018-03-16T06:32:13.671Z,5.50
2018-03-16T06:34:41.255Z,5.40
2018-03-16T06:37:08.820Z,5.50
2018-03-16T06:39:36.373Z,5.50
2018-03-16T06:42:03.940Z,5.50
2018-03-16T06:44:31.533Z,5.60
2018-03-16T06:46:59.861Z,5.60
2018-03-16T06:49:27.409Z,5.60
2018-03-16T06:51:54.993Z,5.60
2018-03-16T06:54:22.507Z,5.60
2018-03-16T06:56:50.089Z,5.70
2018-03-16T06:59:17.658Z,5.70
2018-03-16T07:01:45.242Z,5.70
2018-03-16T07:04:15.543Z,5.60
2018-03-16T07:06:43.109Z,5.60
2018-03-16T07:09:10.669Z,5.60
2018-03-16T07:11:38.230Z,5.60
2018-03-16T07:14:05.785Z,5.60
2018-03-16T07:16:33.349Z,5.60
2018-03-16T07:19:00.991Z,5.60
2018-03-16T07:21:28.574Z,5.60
2018-03-16T07:23:56.123Z,5.60
2018-03-16T07:26:23.715Z,5.60
2018-03-16T07:28:52.106Z,5.60
2018-03-16T07:31:22.953Z,5.60
2018-03-16T07:33:50.565Z,5.50
2018-03-16T07:36:18.129Z,5.60
2018-03-16T07:38:45.686Z,5.60
2018-03-16T07:41:13.285Z,5.60
2018-03-16T07:43:40.863Z,5.60
2018-03-16T07:46:16.175Z,5.60
2018-03-16T07:48:44.531Z,5.50
2018-03-16T07:51:12.091Z,5.50
2018-03-16T07:53:39.662Z,5.50
2018-03-16T07:56:07.243Z,5.50
2018-03-16T07:58:35.567Z,5.50
2018-03-16T08:01:03.141Z,5.50
2018-03-16T08:03:30.705Z,5.50
2018-03-16T08:05:58.254Z,5.60
2018-03-16T08:08:25.890Z,5.60
2018-03-16T08:10:53.445Z,5.60
2018-03-16T08:13:21.011Z,5.60
2018-03-16T08:15:48.586Z,5.60
2018-03-16T08:18:16.154Z,5.70
2018-03-16T08:20:43.713Z,5.70
2018-03-16T08:23:11.292Z,5.70
2018-03-16T08:25:38.838Z,5.70
2018-03-16T08:28:06.453Z,5.70
2018-03-16T08:30:33.997Z,5.70
2018-03-16T08:33:01.607Z,5.60
2018-03-16T08:35:29.135Z,5.60
2018-03-16T08:37:57.535Z,5.60
2018-03-16T08:40:25.103Z,5.60
2018-03-16T08:42:52.753Z,5.60
2018-03-16T08:45:20.330Z,5.60
2018-03-16T08:47:47.879Z,5.50
2018-03-16T08:50:15.469Z,5.50
2018-03-16T08:52:43.018Z,5.50
2018-03-16T08:55:10.624Z,5.50
2018-03-16T08:57:38.221Z,5.50
2018-03-16T09:00:05.788Z,5.40
2018-03-16T09:02:33.349Z,5.40
2018-03-16T09:05:00.950Z,5.30
2018-03-16T09:07:29.284Z,5.30
2018-03-16T09:09:56.855Z,5.30
2018-03-16T09:12:24.598Z,5.30
2018-03-16T09:14:52.159Z,5.20
2018-03-16T09:17:19.723Z,5.20
2018-03-16T09:19:47.325Z,5.20
2018-03-16T09:22:14.873Z,5.20
2018-03-16T09:24:42.456Z,5.20
2018-03-16T09:27:10.764Z,5.20
2018-03-16T09:29:38.369Z,5.20
2018-03-16T09:32:05.983Z,5.20
2018-03-16T09:34:33.517Z,5.20
2018-03-16T09:37:01.869Z,5.10
2018-03-16T09:39:29.437Z,5.10
2018-03-16T09:41:56.993Z,5.20
2018-03-16T09:44:24.554Z,5.10
2018-03-16T09:46:52.135Z,5.20
2018-03-16T09:49:20.468Z,5.20
2018-03-16T09:51:48.044Z,5.10
2018-03-16T09:54:15.598Z,5.20
2018-03-16T09:56:43.185Z,5.20
2018-03-16T09:59:10.720Z,5.20
2018-03-16T10:01:38.346Z,5.20
2018-03-16T10:04:06.070Z,5.10
2018-03-16T10:06:34.513Z,5.10
2018-03-16T10:09:02.061Z,5.10
2018-03-16T10:11:29.668Z,5.10
2018-03-16T10:13:57.994Z,5.10
2018-03-16T10:16:25.794Z,5.10
2018-03-16T10:18:53.337Z,5.10
2018-03-16T10:21:20.934Z,5.10
2018-03-16T10:23:49.278Z,5.10
2018-03-16T10:26:16.828Z,5.00
2018-03-16T10:28:44.574Z,5.10
2018-03-16T10:31:12.190Z,5.10
2018-03-16T10:33:40.530Z,5.10
2018-03-16T10:36:08.104Z,5.10
2018-03-16T10:38:35.714Z,5.20
2018-03-16T10:41:03.432Z,5.20
2018-03-16T10:43:31.149Z,5.20
2018-03-16T10:45:58.710Z,5.20
2018-03-16T10:48:26.277Z,5.20
2018-03-16T10:50:53.821Z,5.20
2018-03-16T10:53:21.394Z,5.20
2018-03-16T10:55:48.953Z,5.20
2018-03-16T10:58:16.513Z,5.20
2018-03-16T11:00:49.795Z,5.10
2018-03-16T11:03:17.371Z,5.10
2018-03-16T11:05:50.492Z,5.10
2018-03-16T11:08:23.582Z,5.20
2018-03-16T11:10:51.155Z,5.10
2018-03-16T11:13:19.505Z,5.20
2018-03-16T11:15:47.044Z,5.10
2018-03-16T11:18:14.606Z,5.20
2018-03-16T11:20:42.194Z,5.20
2018-03-16T11:23:09.762Z,5.20
2018-03-16T11:25:37.358Z,5.20
2018-03-16T11:28:04.909Z,5.20
2018-03-16T11:30:32.480Z,5.20
2018-03-16T11:33:00.054Z,5.20
2018-03-16T11:35:27.627Z,5.20
2018-03-16T11:37:55.378Z,5.20
2018-03-16T11:40:22.952Z,5.10
2018-03-16T11:42:50.505Z,5.10
2018-03-16T11:45:18.091Z,5.10
2018-03-16T11:47:45.656Z,5.10
2018-03-16T11:50:14.027Z,5.00
2018-03-16T11:52:41.573Z,5.00
2018-03-16T11:55:09.166Z,5.00
2018-03-16T11:57:36.711Z,5.00
2018-03-16T12:00:04.412Z,4.90
2018-03-16T12:02:31.960Z,4.90
2018-03-16T12:04:59.522Z,4.90
2018-03-16T12:07:27.836Z,4.90
2018-03-16T12:09:55.400Z,4.80
2018-03-16T12:12:22.945Z,4.80
2018-03-16T12:14:50.522Z,4.80
2018-03-16T12:17:18.116Z,4.80
2018-03-16T12:19:45.696Z,4.80
2018-03-16T12:22:14.012Z,4.80
2018-03-16T12:24:41.634Z,4.80
2018-03-16T12:27:10.255Z,4.70
2018-03-16T12:29:37.828Z,4.70
2018-03-16T12:32:05.382Z,4.70
2018-03-16T12:34:32.952Z,4.70
2018-03-16T12:37:00.752Z,4.60
2018-03-16T12:39:29.097Z,4.60
2018-03-16T12:41:56.674Z,4.60
2018-03-16T12:44:24.296Z,4.60
2018-03-16T12:46:51.860Z,4.60
2018-03-16T12:49:19.483Z,4.60
2018-03-16T12:51:47.841Z,4.50
2018-03-16T12:54:16.930Z,4.40
2018-03-16T12:56:46.059Z,4.40
2018-03-16T12:59:13.913Z,4.40
2018-03-16T13:01:41.468Z,4.30
2018-03-16T13:04:09.841Z,4.30
2018-03-16T13:06:38.429Z,4.30
2018-03-16T13:09:06.742Z,4.30
2018-03-16T13:11:35.293Z,4.30
2018-03-16T13:14:02.851Z,4.30
2018-03-16T13:16:31.283Z,4.20
2018-03-16T13:18:58.836Z,4.20
2018-03-16T13:21:26.452Z,4.20
2018-03-16T13:23:54.050Z,4.10
2018-03-16T13:26:21.623Z,4.20
2018-03-16T13:28:49.249Z,4.20
2018-03-16T13:31:16.853Z,4.20
2018-03-16T13:33:44.506Z,4.20
2018-03-16T13:36:12.112Z,4.30
2018-03-16T13:38:39.737Z,4.30
2018-03-16T13:41:07.363Z,4.20
2018-03-16T13:43:34.933Z,4.20
2018-03-16T13:46:02.552Z,4.20
2018-03-16T13:48:30.131Z,4.10
2018-03-16T13:50:58.597Z,4.10
2018-03-16T13:53:26.921Z,4.10
2018-03-16T13:55:55.510Z,4.10
2018-03-16T13:58:23.042Z,4.20
2018-03-16T14:00:50.599Z,4.20
2018-03-16T14:03:18.370Z,4.20
2018-03-16T14:05:46.847Z,4.20
2018-03-16T14:08:14.439Z,4.20
2018-03-16T14:10:41.996Z,4.20
2018-03-16T14:13:09.611Z,4.10
2018-03-16T14:15:37.978Z,4.10
2018-03-16T14:18:05.524Z,4.10
2018-03-16T14:20:33.096Z,4.10
2018-03-16T14:23:00.653Z,4.10
2018-03-16T14:25:28.998Z,4.00
2018-03-16T14:27:56.597Z,4.00
2018-03-16T14:30:24.903Z,3.90
2018-03-16T14:32:52.468Z,3.90
2018-03-16T14:35:20.039Z,3.80
2018-03-16T14:37:47.592Z,3.80
2018-03-16T14:40:15.251Z,3.70
2018-03-16T14:42:42.818Z,3.70
2018-03-16T14:45:10.403Z,3.70
2018-03-16T14:47:37.980Z,3.70
2018-03-16T14:50:05.558Z,3.60
2018-03-16T14:52:33.882Z,3.60
2018-03-16T14:55:01.500Z,3.60
2018-03-16T14:57:29.255Z,3.60
2018-03-16T14:59:56.817Z,3.60
2018-03-16T15:02:25.130Z,3.60
2018-03-16T15:04:52.764Z,3.60
2018-03-16T15:07:20.381Z,3.60
2018-03-16T15:09:48.001Z,3.60
2018-03-16T15:12:15.628Z,3.60
2018-03-16T15:14:44.043Z,3.60
2018-03-16T15:17:11.661Z,3.60
2018-03-16T15:19:39.278Z,3.60
2018-03-16T15:22:06.971Z,3.60
2018-03-16T15:24:34.654Z,3.50
2018-03-16T15:27:02.242Z,3.50
2018-03-16T15:29:29.807Z,3.50
2018-03-16T15:31:57.362Z,3.40
2018-03-16T15:34:24.932Z,3.40
2018-03-16T15:36:52.472Z,3.40
2018-03-16T15:39:20.850Z,3.30
2018-03-16T15:41:48.474Z,3.30
2018-03-16T15:44:16.010Z,3.30
2018-03-16T15:46:43.572Z,3.20
2018-03-16T15:49:11.318Z,3.20
2018-03-16T15:51:38.877Z,3.20
2018-03-16T15:54:07.396Z,3.20
2018-03-16T15:56:35.035Z,3.20
2018-03-16T15:59:04.202Z,3.10
2018-03-16T16:01:31.775Z,3.10
2018-03-16T16:03:59.322Z,3.00
2018-03-16T16:06:27.045Z,3.00
2018-03-16T16:08:54.634Z,3.00
2018-03-16T16:11:22.226Z,3.00
2018-03-16T16:13:49.806Z,3.00
2018-03-16T16:16:18.269Z,2.90
2018-03-16T16:18:45.930Z,2.90
2018-03-16T16:21:13.536Z,2.90
2018-03-16T16:23:41.219Z,2.90
2018-03-16T16:26:09.006Z,2.90
2018-03-16T16:28:36.579Z,2.90
2018-03-16T16:31:04.165Z,2.90
2018-03-16T16:33:33.250Z,2.80
2018-03-16T16:36:00.830Z,2.80
2018-03-16T16:38:28.386Z,2.80
2018-03-16T16:40:57.471Z,2.80
2018-03-16T16:43:25.775Z,2.70
2018-03-16T16:45:53.394Z,2.70
2018-03-16T16:48:20.955Z,2.70
2018-03-16T16:50:48.611Z,2.70
2018-03-16T16:53:16.191Z,2.70
2018-03-16T16:55:43.778Z,2.70
2018-03-16T16:58:12.088Z,2.70
2018-03-16T17:00:39.705Z,2.70
2018-03-16T17:03:07.233Z,2.70
2018-03-16T17:05:34.819Z,2.70
2018-03-16T17:08:02.363Z,2.60
2018-03-16T17:10:29.930Z,2.60
2018-03-16T17:12:57.524Z,2.60
2018-03-16T17:15:25.270Z,2.50
2018-03-16T17:17:52.805Z,2.50
2018-03-16T17:20:20.368Z,2.50
2018-03-16T17:22:47.905Z,2.50
2018-03-16T17:25:15.476Z,2.50
2018-03-16T17:27:43.034Z,2.50
2018-03-16T17:30:10.610Z,2.50
2018-03-16T17:32:38.156Z,2.50
2018-03-16T17:35:05.734Z,2.50
2018-03-16T17:37:33.279Z,2.50
2018-03-16T17:40:00.845Z,2.50
2018-03-16T17:42:28.402Z,2.50
2018-03-16T17:44:55.967Z,2.50
2018-03-16T17:47:24.294Z,2.40
2018-03-16T17:49:51.876Z,2.40
2018-03-16T17:52:19.445Z,2.40
2018-03-16T17:54:47.028Z,2.40
2018-03-16T17:57:14.584Z,2.40
2018-03-16T17:59:42.269Z,2.40
2018-03-16T18:02:09.838Z,2.40
2018-03-16T18:04:38.186Z,2.50
2018-03-16T18:07:05.783Z,2.40
2018-03-16T18:09:33.364Z,2.40
2018-03-16T18:12:00.909Z,2.40
2018-03-16T18:14:28.689Z,2.40
2018-03-16T18:16:56.269Z,2.40
2018-03-16T18:19:23.819Z,2.30
2018-03-16T18:21:52.722Z,2.30
2018-03-16T18:24:20.312Z,2.30
2018-03-16T18:26:48.131Z,2.30
2018-03-16T18:29:15.753Z,2.30
2018-03-16T18:31:44.082Z,2.30
2018-03-16T18:34:11.786Z,2.20
2018-03-16T18:36:39.341Z,2.30
2018-03-16T18:39:07.731Z,2.20
2018-03-16T18:41:35.316Z,2.20
2018-03-16T18:44:02.924Z,2.30
2018-03-16T18:46:30.804Z,2.30
2018-03-16T18:48:59.200Z,2.30
2018-03-16T18:51:26.788Z,2.20
2018-03-16T18:53:54.388Z,2.30
2018-03-16T18:56:22.540Z,2.30
2018-03-16T18:58:50.146Z,2.30
2018-03-16T19:01:18.478Z,2.20
2018-03-16T19:03:46.082Z,2.20
2018-03-16T19:06:14.488Z,2.20
2018-03-16T19:08:42.179Z,2.20
2018-03-16T19:11:11.548Z,2.20
2018-03-16T19:13:40.021Z,2.30
2018-03-16T19:16:08.527Z,2.20
2018-03-16T19:18:36.239Z,2.20
2018-03-16T19:21:04.161Z,2.20
2018-03-16T19:23:31.746Z,2.20
2018-03-16T19:25:59.909Z,2.20
2018-03-16T19:28:27.555Z,2.20
2018-03-16T19:30:55.216Z,2.20
2018-03-16T19:33:22.863Z,2.20
2018-03-16T19:35:51.300Z,2.20
2018-03-16T19:38:18.891Z,2.10
2018-03-16T19:40:47.298Z,2.10
2018-03-16T19:43:14.854Z,2.10
2018-03-16T19:45:42.502Z,2.10
2018-03-16T19:48:10.287Z,2.00
2018-03-16T19:50:37.853Z,2.00
2018-03-16T19:53:05.473Z,1.90
2018-03-16T19:55:34.813Z,1.90
2018-03-16T19:58:02.393Z,1.90
2018-03-16T20:00:30.242Z,1.90
2018-03-16T20:02:57.975Z,1.90
2018-03-16T20:05:25.557Z,1.80
2018-03-16T20:07:53.437Z,1.80
2018-03-16T20:10:21.913Z,1.80
2018-03-16T20:12:49.780Z,1.80
2018-03-16T20:15:17.656Z,1.80
2018-03-16T20:17:45.271Z,1.80
2018-03-16T20:20:12.862Z,1.80
2018-03-16T20:22:40.438Z,1.70
2018-03-16T20:25:08.124Z,1.70
2018-03-16T20:27:35.671Z,1.70
2018-03-16T20:30:04.110Z,1.70
2018-03-16T20:32:31.680Z,1.70
2018-03-16T20:34:59.496Z,1.70
2018-03-16T20:37:28.619Z,1.70
2018-03-16T20:39:56.266Z,1.60
2018-03-16T20:42:24.720Z,1.60
2018-03-16T20:44:52.416Z,1.60
2018-03-16T20:47:19.960Z,1.60
2018-03-16T20:49:47.612Z,1.60
2018-03-16T20:52:15.149Z,1.60
2018-03-16T20:54:42.711Z,1.60
2018-03-16T20:57:10.420Z,1.60
2018-03-16T20:59:38.916Z,1.60
2018-03-16T21:02:06.491Z,1.50
2018-03-16T21:04:34.149Z,1.50
2018-03-16T21:07:01.733Z,1.50
2018-03-16T21:09:29.319Z,1.50
2018-03-16T21:11:56.939Z,1.50
2018-03-16T21:14:24.594Z,1.40
2018-03-16T21:16:52.260Z,1.50
2018-03-16T21:19:20.643Z,1.40
2018-03-16T21:21:48.296Z,1.40
2018-03-16T21:24:15.841Z,1.40
2018-03-16T21:26:44.470Z,1.40
2018-03-16T21:29:12.102Z,1.40
2018-03-16T21:31:39.700Z,1.50
2018-03-16T21:34:08.142Z,1.40
2018-03-16T21:36:35.771Z,1.40
2018-03-16T21:39:03.392Z,1.40
2018-03-16T21:41:31.060Z,1.40
2018-03-16T21:43:58.649Z,1.40
2018-03-16T21:46:27.124Z,1.30
2018-03-16T21:48:55.451Z,1.30
2018-03-16T21:51:23.097Z,1.30
2018-03-16T21:53:51.411Z,1.30
2018-03-16T21:56:19.003Z,1.40
2018-03-16T21:58:47.327Z,1.30
2018-03-16T22:01:14.917Z,1.30
2018-03-16T22:03:42.477Z,1.30
2018-03-16T22:06:11.647Z,1.30
2018-03-16T22:08:39.207Z,1.30
2018-03-16T22:11:06.813Z,1.30
2018-03-16T22:13:35.137Z,1.30
2018-03-16T22:16:02.730Z,1.30
2018-03-16T22:18:31.223Z,1.30
2018-03-16T22:20:59.844Z,1.30
2018-03-16T22:23:27.576Z,1.30
2018-03-16T22:25:55.946Z,1.20
2018-03-16T22:28:23.562Z,1.20
2018-03-16T22:30:51.870Z,1.20
2018-03-16T22:33:19.473Z,1.10
2018-03-16T22:35:47.802Z,1.10
2018-03-16T22:38:15.466Z,1.10
2018-03-16T22:40:43.065Z,1.10
2018-03-16T22:43:11.418Z,1.10
2018-03-16T22:45:39.001Z,1.10
2018-03-16T22:48:07.343Z,1.10
2018-03-16T22:50:34.938Z,1.00
2018-03-16T22:53:03.534Z,1.00
2018-03-16T22:55:31.078Z,1.00
2018-03-16T22:57:59.447Z,1.00
2018-03-16T23:00:28.183Z,1.00
2018-03-16T23:02:55.875Z,1.00
2018-03-16T23:05:23.505Z,1.00
2018-03-16T23:07:51.026Z,1.00
2018-03-16T23:10:19.395Z,1.00
2018-03-16T23:12:46.991Z,1.00
2018-03-16T23:15:14.627Z,1.00
2018-03-16T23:17:42.961Z,0.90
2018-03-16T23:20:10.514Z,0.90
2018-03-16T23:22:38.243Z,0.90
2018-03-16T23:25:06.561Z,0.90
2018-03-16T23:27:34.371Z,0.80
2018-03-16T23:30:02.738Z,0.80
2018-03-16T23:32:30.321Z,0.80
2018-03-16T23:34:58.802Z,0.70
2018-03-16T23:37:27.122Z,0.70
2018-03-16T23:39:54.664Z,0.70
2018-03-16T23:42:22.226Z,0.70
2018-03-16T23:44:49.783Z,0.60
2018-03-16T23:47:17.348Z,0.60
2018-03-16T23:49:45.070Z,0.60
2018-03-16T23:52:12.633Z,0.50
2018-03-16T23:54:40.937Z,0.50
2018-03-16T23:57:08.514Z,0.50
2018-03-16T23:59:36.073Z,0.50
